Time;durP1;ratioP1;P1;durP2;ratioP2;P2;SDS_P1;SDS_P2;PMS_P1;PMS_P2;Temp;Humidity;BMP_temperature;BMP_pressure;BME280_temperature;BME280_humidity;BME280_pressure;Samples;Min_cycle;Max_cycle;Signal;HPM_P1;HPM_P2
2021/08/22 00:01:48;;;;;;;26.68;16.52;;;;;;;13.68;84.72;99402.40;4142150;85;21060;-83
2021/08/22 00:07:49;;;;;;;22.62;16.62;;;;;;;13.63;85.04;99391.75;4114754;85;21002;-83
2021/08/22 00:13:50;;;;;;;24.18;16.52;;;;;;;13.59;85.05;99392.91;4145802;85;21030;-82
2021/08/22 00:19:52;;;;;;;26.05;17.45;;;;;;;13.49;85.17;99393.63;4084643;85;21081;-83
2021/08/22 00:25:53;;;;;;;27.42;18.37;;;;;;;13.41;85.32;99381.81;4146520;85;21542;-84
2021/08/22 00:31:54;;;;;;;27.67;18.73;;;;;;;13.36;85.35;99392.39;4140895;85;21046;-83
2021/08/22 00:37:56;;;;;;;26.82;17.90;;;;;;;13.28;85.29;99383.89;4109974;85;21003;-83
2021/08/22 00:43:58;;;;;;;25.97;17.92;;;;;;;13.17;85.63;99382.43;4131133;85;21093;-82
2021/08/22 00:49:59;;;;;;;20.08;15.90;;;;;;;13.10;85.76;99380.22;4128937;85;21050;-83
2021/08/22 00:56:03;;;;;;;21.62;16.10;;;;;;;13.10;86.56;99378.27;4129809;85;21077;-83
2021/08/22 01:02:06;;;;;;;23.12;16.05;;;;;;;13.11;86.37;99378.47;4130593;85;21010;-83
2021/08/22 01:08:27;;;;;;;21.77;16.27;;;;;;;13.10;86.30;99373.34;4122555;85;21017;-83
2021/08/22 01:14:35;;;;;;;22.77;15.00;;;;;;;13.09;86.36;99369.80;4125611;85;21657;-83
2021/08/22 01:20:59;;;;;;;22.65;15.50;;;;;;;13.10;86.92;99364.53;4079143;85;21624;-84
2021/08/22 01:27:01;;;;;;;17.82;13.98;;;;;;;13.14;86.74;99361.20;4097865;85;21073;-83
2021/08/22 01:33:03;;;;;;;20.10;15.65;;;;;;;13.11;87.14;99364.72;4123524;85;21050;-83
2021/08/22 01:39:05;;;;;;;19.90;16.23;;;;;;;13.11;86.81;99366.09;4104635;85;21526;-83
2021/08/22 01:45:09;;;;;;;20.02;14.47;;;;;;;12.99;86.72;99360.89;4095365;85;21118;-83
2021/08/22 01:51:11;;;;;;;23.83;17.40;;;;;;;12.89;86.81;99358.84;4120035;85;21084;-83
2021/08/22 01:57:12;;;;;;;24.60;15.83;;;;;;;12.85;86.74;99362.16;4103927;85;21582;-83
2021/08/22 02:03:18;;;;;;;22.25;14.85;;;;;;;12.74;86.90;99358.53;4116529;85;21126;-82
2021/08/22 02:09:36;;;;;;;21.02;15.43;;;;;;;12.73;87.65;99358.34;4103124;85;21049;-83
2021/08/22 02:15:43;;;;;;;21.35;15.90;;;;;;;12.77;87.41;99361.89;4149317;85;21060;-83
2021/08/22 02:21:45;;;;;;;23.57;14.98;;;;;;;12.60;87.54;99358.42;4133172;85;21590;-83
2021/08/22 02:27:47;;;;;;;21.27;14.93;;;;;;;12.53;87.23;99361.09;3984951;87;21624;-83
2021/08/22 02:33:49;;;;;;;18.65;13.83;;;;;;;12.40;87.39;99356.45;4115307;85;21053;-83
2021/08/22 02:39:50;;;;;;;22.65;13.15;;;;;;;12.34;87.54;99352.48;4093206;85;21090;-83
2021/08/22 02:45:51;;;;;;;18.70;13.43;;;;;;;12.31;87.84;99361.47;4026310;86;21074;-83
2021/08/22 02:51:52;;;;;;;17.52;14.23;;;;;;;12.30;87.89;99357.16;4132249;85;21066;-83
2021/08/22 02:57:54;;;;;;;21.02;14.20;;;;;;;12.18;87.44;99346.43;4104623;85;21098;-82
2021/08/22 03:03:55;;;;;;;18.27;14.03;;;;;;;12.05;87.79;99345.71;4129309;85;21107;-82
2021/08/22 03:09:56;;;;;;;19.52;13.32;;;;;;;12.04;87.80;99348.27;4100763;85;21067;-83
2021/08/22 03:15:57;;;;;;;21.70;15.75;;;;;;;11.95;87.83;99338.17;4118793;85;21030;-83
2021/08/22 03:21:58;;;;;;;19.73;14.18;;;;;;;11.89;88.17;99328.67;4137439;85;21049;-82
2021/08/22 03:28:01;;;;;;;21.05;15.63;;;;;;;11.89;88.37;99334.96;4102660;85;21677;-82
2021/08/22 03:34:02;;;;;;;18.25;14.20;;;;;;;11.88;88.23;99330.66;4108025;85;21043;-83
2021/08/22 03:40:05;;;;;;;20.23;13.48;;;;;;;11.95;89.28;99327.20;4091382;85;21132;-83
2021/08/22 03:46:06;;;;;;;20.90;14.23;;;;;;;12.25;89.86;99327.30;4134854;85;21057;-82
2021/08/22 03:52:07;;;;;;;22.40;15.85;;;;;;;12.43;89.26;99328.23;3999173;86;21021;-82
2021/08/22 03:58:08;;;;;;;19.98;14.43;;;;;;;12.31;88.74;99334.59;3946926;88;21056;-82
2021/08/22 04:04:09;;;;;;;19.92;14.73;;;;;;;12.26;89.20;99328.10;4003315;86;21074;-82
2021/08/22 04:10:13;;;;;;;19.27;13.70;;;;;;;12.18;88.66;99334.08;4003704;87;21604;-83
2021/08/22 04:16:15;;;;;;;23.65;16.23;;;;;;;12.08;89.01;99326.55;3997606;87;21050;-83
2021/08/22 04:22:16;;;;;;;19.62;15.20;;;;;;;12.07;88.90;99329.67;4012766;86;21503;-82
2021/08/22 04:28:18;;;;;;;22.27;15.70;;;;;;;12.01;89.06;99330.58;4013418;86;21040;-83
2021/08/22 04:34:19;;;;;;;18.90;14.38;;;;;;;12.01;89.25;99336.06;4010674;87;21087;-82
2021/08/22 04:40:20;;;;;;;20.70;14.10;;;;;;;12.02;89.61;99330.80;3992099;87;21116;-83
2021/08/22 04:46:22;;;;;;;16.67;13.75;;;;;;;12.19;90.10;99334.88;4018948;86;21061;-83
2021/08/22 04:52:24;;;;;;;20.40;14.10;;;;;;;12.28;89.91;99335.36;4005135;87;21050;-82
2021/08/22 04:58:25;;;;;;;19.07;14.63;;;;;;;12.48;90.31;99336.74;4015554;86;21064;-83
2021/08/22 05:04:28;;;;;;;19.23;14.18;;;;;;;12.64;89.99;99333.13;4024292;86;21224;-83
2021/08/22 05:10:29;;;;;;;20.40;15.28;;;;;;;12.77;90.34;99333.05;4001729;87;21099;-82
2021/08/22 05:16:30;;;;;;;20.77;16.23;;;;;;;12.99;90.19;99337.53;4123202;85;21069;-83
2021/08/22 05:22:32;;;;;;;23.00;16.07;;;;;;;13.00;90.08;99330.87;4132898;85;21092;-83
2021/08/22 05:28:34;;;;;;;19.67;15.88;;;;;;;13.16;90.26;99333.34;4144018;85;22342;-82
2021/08/22 05:34:35;;;;;;;24.02;17.05;;;;;;;13.40;90.23;99336.24;4112632;85;21578;-83
2021/08/22 05:40:37;;;;;;;20.02;15.25;;;;;;;13.58;89.93;99337.10;4103128;85;21046;-84
2021/08/22 05:46:38;;;;;;;18.98;14.83;;;;;;;13.75;89.71;99332.25;4134304;85;21074;-83
2021/08/22 05:52:39;;;;;;;23.22;14.80;;;;;;;13.92;89.51;99328.77;4120173;85;21022;-83
2021/08/22 05:58:41;;;;;;;25.02;18.00;;;;;;;14.00;89.32;99325.48;4124583;85;22252;-82
2021/08/22 06:04:42;;;;;;;20.75;16.93;;;;;;;14.11;89.46;99320.75;4126371;85;21605;-82
2021/08/22 06:10:44;;;;;;;26.55;19.55;;;;;;;14.31;89.94;99319.27;4078912;85;21054;-83
2021/08/22 06:16:45;;;;;;;26.65;19.75;;;;;;;14.58;90.13;99321.06;4135626;85;21022;-83
2021/08/22 06:22:46;;;;;;;26.00;18.52;;;;;;;14.78;90.39;99314.77;4102235;85;21059;-83
2021/08/22 06:28:47;;;;;;;26.15;19.48;;;;;;;15.03;90.59;99311.38;4094657;85;22129;-83
2021/08/22 06:34:49;;;;;;;26.45;19.05;;;;;;;15.27;90.43;99306.97;4117887;85;21035;-84
2021/08/22 06:40:50;;;;;;;23.35;17.92;;;;;;;15.51;90.67;99297.28;4116684;85;21105;-83
2021/08/22 06:46:51;;;;;;;21.65;16.77;;;;;;;15.78;90.85;99298.94;4125743;85;21479;-84
2021/08/22 06:52:52;;;;;;;20.95;14.95;;;;;;;16.07;91.02;99293.44;4101090;85;21944;-84
2021/08/22 06:58:54;;;;;;;21.00;15.40;;;;;;;16.39;90.93;99295.98;4106062;85;21039;-84
2021/08/22 07:04:56;;;;;;;19.90;14.45;;;;;;;16.65;90.68;99289.29;4113375;85;20978;-84
2021/08/22 07:10:57;;;;;;;22.30;14.73;;;;;;;16.93;90.44;99291.80;4111482;85;21050;-83
2021/08/22 07:16:58;;;;;;;19.17;14.20;;;;;;;17.21;90.30;99302.56;4108136;85;21061;-85
2021/08/22 07:23:01;;;;;;;19.90;13.25;;;;;;;17.52;90.19;99305.42;4089514;85;21122;-84
2021/08/22 07:29:03;;;;;;;18.00;13.13;;;;;;;17.76;89.84;99307.87;4068269;85;21693;-85
2021/08/22 07:35:06;;;;;;;16.93;11.97;;;;;;;17.94;89.35;99307.06;4081972;85;22056;-85
2021/08/22 07:41:07;;;;;;;18.62;11.63;;;;;;;18.18;89.04;99305.16;4102937;85;21046;-86
2021/08/22 07:47:09;;;;;;;15.18;11.45;;;;;;;18.50;88.45;99299.92;4100414;85;21710;-86
2021/08/22 07:53:10;;;;;;;14.05;10.50;;;;;;;18.82;88.14;99293.27;4109804;85;21601;-85
2021/08/22 07:59:11;;;;;;;11.70;9.25;;;;;;;19.22;87.81;99292.72;4109942;85;21073;-85
2021/08/22 08:05:14;;;;;;;13.35;9.73;;;;;;;19.68;87.29;99305.13;4115475;85;21098;-85
2021/08/22 08:11:16;;;;;;;11.65;9.10;;;;;;;20.12;86.55;99304.58;4122691;85;21114;-86
2021/08/22 08:17:17;;;;;;;11.20;9.75;;;;;;;20.38;82.52;99303.59;4097983;85;21443;-86
2021/08/22 08:23:18;;;;;;;11.22;8.65;;;;;;;20.61;83.92;99299.88;4130420;85;21061;-85
2021/08/22 08:29:19;;;;;;;10.03;8.18;;;;;;;20.85;83.27;99290.12;4074562;85;21002;-85
2021/08/22 08:35:21;;;;;;;12.33;8.83;;;;;;;21.17;83.06;99288.72;4110307;85;21810;-86
2021/08/22 08:41:22;;;;;;;9.90;7.87;;;;;;;21.44;82.17;99287.14;4113107;85;21137;-86
2021/08/22 08:47:25;;;;;;;11.88;7.90;;;;;;;21.74;81.59;99283.10;4099647;85;21108;-86
2021/08/22 08:53:37;;;;;;;9.05;6.83;;;;;;;22.02;80.99;99289.89;4117201;85;21112;-85
2021/08/22 08:59:39;;;;;;;7.60;6.65;;;;;;;22.29;78.99;99290.22;4115522;85;21069;-86
2021/08/22 09:06:24;;;;;;;8.40;6.83;;;;;;;22.58;78.91;99283.31;4099654;85;21046;-86
2021/08/22 09:13:16;;;;;;;8.73;6.97;;;;;;;22.80;77.86;99276.43;4090957;85;21439;-86
2021/08/22 09:19:57;;;;;;;7.42;6.08;;;;;;;23.06;75.56;99268.14;4112132;85;21484;-86
2021/08/22 09:26:42;;;;;;;6.08;5.15;;;;;;;23.54;74.56;99268.25;4124258;85;21071;-86
2021/08/22 09:33:40;;;;;;;5.37;4.58;;;;;;;23.94;72.20;99257.92;4121406;85;21405;-86
2021/08/22 09:40:19;;;;;;;;;;;;;;;24.56;70.11;99263.02;4116290;85;21042;-86
2021/08/22 09:47:08;;;;;;;5.03;3.90;;;;;;;24.99;68.17;99271.85;4124911;85;20134;-86
2021/08/22 09:54:06;;;;;;;6.67;4.08;;;;;;;26.00;68.85;99269.30;4117613;85;21121;-86
2021/08/22 10:01:03;;;;;;;4.55;3.90;;;;;;;26.56;65.88;99269.23;4112327;85;21061;-85
2021/08/22 10:07:20;;;;;;;3.72;3.27;;;;;;;27.09;63.53;99262.50;4143703;85;21042;-85
2021/08/22 10:13:21;;;;;;;6.85;3.52;;;;;;;28.12;63.81;99250.78;4105933;85;21537;-86
2021/08/22 10:19:27;;;;;;;3.87;3.52;;;;;;;28.45;61.53;99238.00;4118026;85;21605;-85
2021/08/22 10:25:47;;;;;;;;;;;;;;;28.64;60.65;99240.74;4140745;85;21089;-85
2021/08/22 10:32:04;;;;;;;4.40;3.27;;;;;;;29.07;58.03;99236.19;4122028;85;20469;-85
2021/08/22 10:38:23;;;;;;;3.55;3.25;;;;;;;28.69;57.47;99227.34;4100365;85;21058;-85
2021/08/22 10:44:43;;;;;;;5.35;3.47;;;;;;;29.25;57.02;99233.70;4095556;85;21053;-84
2021/08/22 10:51:08;;;;;;;4.10;3.67;;;;;;;29.28;49.20;99223.63;4113868;84;21125;-85
2021/08/22 10:57:14;;;;;;;5.90;3.20;;;;;;;29.27;51.45;99219.24;4114709;85;21024;-84
2021/08/22 11:03:22;;;;;;;3.15;2.72;;;;;;;29.69;51.44;99220.09;4124351;85;21161;-85
2021/08/22 11:09:40;;;;;;;3.37;2.70;;;;;;;29.63;47.63;99225.64;4114546;85;21590;-84
2021/08/22 11:15:43;;;;;;;3.45;2.95;;;;;;;29.63;48.31;99229.12;4120510;85;21065;-85
2021/08/22 11:21:44;;;;;;;3.92;2.80;;;;;;;30.14;48.64;99230.48;4099722;85;21064;-85
2021/08/22 11:27:47;;;;;;;3.17;2.77;;;;;;;29.94;46.78;99224.94;4098537;85;21096;-85
2021/08/22 11:33:50;;;;;;;5.37;2.90;;;;;;;29.90;46.45;99220.92;4079061;85;21110;-85
2021/08/22 11:39:51;;;;;;;2.92;2.70;;;;;;;30.19;46.08;99222.06;4130383;85;21041;-85
2021/08/22 11:45:53;;;;;;;4.62;2.52;;;;;;;29.78;46.01;99223.52;4089863;85;21523;-85
2021/08/22 11:51:56;;;;;;;4.10;2.67;;;;;;;29.46;43.92;99220.47;4100731;85;21519;-85
2021/08/22 11:58:16;;;;;;;4.92;2.62;;;;;;;28.85;41.08;99219.75;4127615;85;21109;-85
2021/08/22 12:04:19;;;;;;;2.50;2.30;;;;;;;28.58;43.25;99209.54;4119983;85;21045;-85
2021/08/22 12:10:29;;;;;;;2.52;2.30;;;;;;;28.47;43.64;99205.13;4112468;85;21041;-85
2021/08/22 12:16:33;;;;;;;2.55;2.33;;;;;;;28.31;43.84;99209.27;4134624;85;21106;-84
2021/08/22 12:22:34;;;;;;;3.58;2.42;;;;;;;27.95;43.91;99209.72;4116646;85;21068;-85
2021/08/22 12:28:42;;;;;;;2.95;2.52;;;;;;;27.46;44.61;99201.16;4141896;85;21589;-85
2021/08/22 12:34:44;;;;;;;2.87;2.17;;;;;;;27.24;45.37;99193.08;4090912;85;21411;-84
2021/08/22 12:40:45;;;;;;;2.20;2.00;;;;;;;27.16;45.00;99184.87;4115749;85;21050;-85
2021/08/22 12:46:51;;;;;;;2.50;2.22;;;;;;;27.05;45.25;99179.66;4107322;85;21448;-85
2021/08/22 12:52:52;;;;;;;3.33;2.67;;;;;;;26.64;45.14;99172.20;4117439;85;21033;-84
2021/08/22 12:58:54;;;;;;;8.15;4.22;;;;;;;26.40;45.94;99170.77;4109645;85;21589;-84
2021/08/22 13:04:56;;;;;;;10.10;3.83;;;;;;;26.14;46.31;99166.84;4117010;85;21066;-84
2021/08/22 13:10:57;;;;;;;3.60;2.75;;;;;;;25.88;46.76;99164.30;4073489;85;22293;-84
2021/08/22 13:16:58;;;;;;;2.98;2.45;;;;;;;25.89;47.84;99161.64;4111689;85;21049;-85
2021/08/22 13:23:00;;;;;;;3.77;2.58;;;;;;;25.99;47.74;99156.97;4117694;85;21153;-85
2021/08/22 13:29:01;;;;;;;3.87;2.85;;;;;;;25.95;47.64;99149.30;4125215;85;21009;-86
2021/08/22 13:35:02;;;;;;;3.83;2.90;;;;;;;25.93;47.84;99153.84;4086149;85;21074;-85
2021/08/22 13:41:04;;;;;;;3.00;2.70;;;;;;;25.84;48.06;99145.48;4104322;85;21140;-85
2021/08/22 13:47:06;;;;;;;2.72;2.33;;;;;;;25.86;48.01;99153.56;4118358;85;22216;-85
2021/08/22 13:53:08;;;;;;;3.85;2.80;;;;;;;25.91;48.17;99137.50;4118403;85;21082;-85
2021/08/22 13:59:12;;;;;;;2.60;2.40;;;;;;;25.88;48.68;99140.47;4107090;85;21053;-85
2021/08/22 14:05:13;;;;;;;5.12;3.27;;;;;;;25.80;48.92;99140.04;4103828;85;22293;-85
2021/08/22 14:11:15;;;;;;;2.80;2.42;;;;;;;25.71;48.21;99137.89;4112350;85;21097;-85
2021/08/22 14:17:16;;;;;;;3.83;2.98;;;;;;;25.60;48.56;99126.41;4083593;85;21162;-85
2021/08/22 14:23:28;;;;;;;3.08;2.42;;;;;;;25.26;49.85;99118.39;4092098;85;21437;-86
2021/08/22 14:29:29;;;;;;;3.67;2.70;;;;;;;25.05;50.26;99089.33;4112342;85;21025;-85
2021/08/22 14:35:30;;;;;;;10.20;5.78;;;;;;;25.05;50.26;99089.33;4091293;85;21411;-85
2021/08/22 14:41:33;;;;;;;6.28;4.28;;;;;;;25.19;50.98;99101.90;4125726;84;21082;-86
2021/08/22 14:47:34;;;;;;;3.45;2.92;;;;;;;25.29;51.38;99093.63;4118408;85;21034;-85
2021/08/22 14:53:38;;;;;;;5.17;2.77;;;;;;;25.12;51.32;99062.38;4117632;85;21539;-85
2021/08/22 14:59:38;;;;;;;3.67;2.98;;;;;;;25.29;51.85;99082.43;4096108;85;21076;-85
2021/08/22 15:05:39;;;;;;;7.22;4.17;;;;;;;25.20;50.89;99079.02;4102944;85;21050;-86
2021/08/22 15:11:41;;;;;;;107.35;96.22;;;;;;;25.14;51.00;99075.30;4122408;85;21069;-84
2021/08/22 15:17:42;;;;;;;10.13;8.45;;;;;;;25.06;51.20;99069.88;4121540;85;21057;-86
2021/08/22 15:23:43;;;;;;;7.42;6.30;;;;;;;24.87;51.56;99082.34;4122963;85;21042;-85
2021/08/22 15:29:45;;;;;;;6.65;3.62;;;;;;;24.75;52.22;99071.32;4118272;85;21041;-85
2021/08/22 15:35:46;;;;;;;5.90;5.05;;;;;;;24.56;52.01;99074.11;4102473;85;21034;-85
2021/08/22 15:41:48;;;;;;;4.00;3.40;;;;;;;24.38;52.41;99073.34;4107676;85;21142;-85
2021/08/22 15:47:49;;;;;;;3.95;3.47;;;;;;;24.28;52.80;99057.78;4116798;85;21489;-85
2021/08/22 15:53:51;;;;;;;5.47;4.05;;;;;;;24.23;53.21;99056.99;4090776;85;21067;-84
2021/08/22 15:59:52;;;;;;;5.47;3.70;;;;;;;24.07;53.54;99058.06;4099908;85;21074;-84
2021/08/22 16:05:53;;;;;;;3.30;3.00;;;;;;;23.89;54.18;99053.83;4090344;85;21061;-85
2021/08/22 16:12:00;;;;;;;4.50;3.33;;;;;;;23.83;54.25;99052.09;4118365;85;21055;-85
2021/08/22 16:18:00;;;;;;;54.15;26.52;;;;;;;23.76;54.75;99046.17;4112067;85;21063;-85
2021/08/22 16:24:01;;;;;;;6.80;5.08;;;;;;;23.68;55.76;99046.94;4000367;85;10000148;-85
2021/08/22 16:30:05;;;;;;;5.45;3.40;;;;;;;23.61;56.46;99045.20;4113787;85;21444;-85
2021/08/22 16:36:06;;;;;;;43.08;20.23;;;;;;;23.49;56.51;99048.11;4088846;85;21046;-85
2021/08/22 16:42:10;;;;;;;8.75;5.40;;;;;;;23.40;57.47;99040.46;4098732;85;21077;-85
2021/08/22 16:48:13;;;;;;;7.35;5.40;;;;;;;23.23;57.92;99041.91;4106246;85;21148;-85
2021/08/22 16:54:16;;;;;;;21.82;13.15;;;;;;;23.03;58.81;99040.91;4091318;85;21149;-85
2021/08/22 17:00:18;;;;;;;130.50;75.37;;;;;;;22.92;59.64;99034.16;4121950;85;21039;-85
2021/08/22 17:06:22;;;;;;;16.15;13.10;;;;;;;22.84;60.53;99039.84;4092405;85;21075;-85
2021/08/22 17:12:23;;;;;;;19.07;11.45;;;;;;;22.77;61.33;99042.91;4091928;85;21046;-85
2021/08/22 17:18:24;;;;;;;13.53;6.25;;;;;;;22.73;62.28;99052.80;4100658;85;21090;-85
2021/08/22 17:24:26;;;;;;;11.60;5.87;;;;;;;22.59;62.85;99059.52;3992233;85;9999570;-85
2021/08/22 17:30:27;;;;;;;9.03;6.50;;;;;;;22.43;63.75;99060.44;4098413;85;21053;-85
2021/08/22 17:36:29;;;;;;;10.35;6.53;;;;;;;22.32;64.38;99054.46;4118991;85;20988;-85
2021/08/22 17:42:30;;;;;;;14.63;11.25;;;;;;;22.19;64.88;99055.75;4097467;85;20999;-85
2021/08/22 17:48:32;;;;;;;10.20;7.00;;;;;;;22.08;65.38;99058.13;4026872;87;21018;-84
2021/08/22 17:54:33;;;;;;;11.12;6.35;;;;;;;21.95;66.17;99049.00;4009614;87;21165;-85
2021/08/22 18:00:35;;;;;;;21.90;14.30;;;;;;;21.79;65.96;99048.53;4023478;87;21142;-85
2021/08/22 18:06:36;;;;;;;16.80;11.08;;;;;;;21.68;66.69;99055.83;4014830;86;21079;-85
2021/08/22 18:12:37;;;;;;;11.43;8.83;;;;;;;21.63;67.01;99056.98;4075626;85;21556;-85
2021/08/22 18:18:39;;;;;;;11.78;7.03;;;;;;;21.53;67.93;99056.10;4098961;85;21104;-84
2021/08/22 18:24:40;;;;;;;11.35;5.97;;;;;;;21.52;68.09;99065.69;3993652;85;9999499;-84
2021/08/22 18:30:43;;;;;;;9.63;6.50;;;;;;;21.54;67.48;99063.85;4105208;85;21126;-84
2021/08/22 18:36:44;;;;;;;7.62;6.20;;;;;;;21.55;67.23;99067.58;4101774;85;21545;-85
2021/08/22 18:42:48;;;;;;;10.15;6.28;;;;;;;21.48;67.43;99072.00;4123983;85;21666;-84
2021/08/22 18:48:49;;;;;;;75.45;37.17;;;;;;;21.37;67.52;99079.91;4131219;85;21050;-85
2021/08/22 18:54:50;;;;;;;14.23;9.38;;;;;;;21.27;67.55;99082.39;4098282;85;21583;-84
2021/08/22 19:00:52;;;;;;;14.85;9.08;;;;;;;21.22;68.09;99084.33;4090117;85;22008;-85
2021/08/22 19:06:53;;;;;;;14.73;8.88;;;;;;;21.09;68.52;99079.37;4108929;85;21038;-85
2021/08/22 19:12:56;;;;;;;11.83;8.70;;;;;;;20.94;68.78;99087.92;4106375;85;21488;-85
2021/08/22 19:18:58;;;;;;;10.75;8.15;;;;;;;20.81;69.56;99080.17;4110469;85;22146;-85
2021/08/22 19:24:59;;;;;;;13.78;7.67;;;;;;;20.69;69.27;99082.92;4100866;85;21058;-85
2021/08/22 19:31:00;;;;;;;17.27;10.08;;;;;;;20.65;70.08;99079.44;4110361;85;21045;-84
2021/08/22 19:37:02;;;;;;;16.95;9.55;;;;;;;20.58;70.40;99079.02;4101554;85;21109;-85
2021/08/22 19:43:05;;;;;;;18.15;12.55;;;;;;;20.51;70.95;99078.45;4035540;86;21070;-85
2021/08/22 19:49:06;;;;;;;15.53;10.23;;;;;;;20.41;71.42;99076.13;4014617;86;21138;-85
2021/08/22 19:55:09;;;;;;;13.68;10.08;;;;;;;20.40;72.38;99075.17;4006376;86;21057;-84
2021/08/22 20:01:12;;;;;;;10.38;8.00;;;;;;;20.40;72.66;99075.97;3993485;87;21139;-85
2021/08/22 20:07:15;;;;;;;12.60;8.13;;;;;;;20.36;72.76;99071.09;4105588;85;21602;-84
2021/08/22 20:13:18;;;;;;;12.58;8.40;;;;;;;20.21;73.16;99071.31;4117012;85;21087;-85
2021/08/22 20:19:20;;;;;;;13.65;8.80;;;;;;;20.09;73.64;99059.50;4112683;85;21408;-84
2021/08/22 20:25:22;;;;;;;12.43;8.95;;;;;;;20.03;74.07;99065.39;4089249;85;21486;-85
2021/08/22 20:31:24;;;;;;;14.33;9.10;;;;;;;19.99;74.43;99053.59;4110227;85;21035;-85
2021/08/22 20:37:27;;;;;;;10.55;8.43;;;;;;;19.96;74.65;99052.48;4079030;85;21377;-85
2021/08/22 20:43:31;;;;;;;13.55;8.15;;;;;;;19.95;74.84;99046.73;4117700;85;21002;-84
2021/08/22 20:49:33;;;;;;;11.63;7.80;;;;;;;19.93;75.02;99045.62;4100381;85;21068;-84
2021/08/22 20:55:34;;;;;;;10.85;7.60;;;;;;;19.94;75.44;99038.84;4108194;85;21075;-84
2021/08/22 21:01:38;;;;;;;10.15;7.55;;;;;;;19.93;75.77;99042.84;4087143;85;21102;-84
2021/08/22 21:07:42;;;;;;;11.08;7.55;;;;;;;19.93;76.17;99048.40;4124355;85;21619;-84
2021/08/22 21:13:44;;;;;;;12.18;7.95;;;;;;;19.90;76.07;99042.33;4113080;85;21050;-84
2021/08/22 21:19:46;;;;;;;16.87;8.10;;;;;;;19.84;76.53;99038.52;4103379;85;22254;-84
2021/08/22 21:25:48;;;;;;;10.00;7.78;;;;;;;19.75;76.70;99037.73;4108291;85;21107;-84
2021/08/22 21:31:51;;;;;;;13.60;8.83;;;;;;;19.69;77.08;99034.52;4095228;85;21013;-84
2021/08/22 21:37:55;;;;;;;11.68;8.65;;;;;;;19.62;77.42;99035.47;4118561;85;21033;-85
2021/08/22 21:43:57;;;;;;;10.65;9.23;;;;;;;19.65;77.52;99036.02;4107923;85;21570;-84
2021/08/22 21:49:58;;;;;;;12.50;8.53;;;;;;;19.58;77.68;99029.23;4109935;85;21100;-84
2021/08/22 21:56:03;;;;;;;12.93;9.53;;;;;;;19.51;78.06;99033.55;4106150;85;21029;-84
2021/08/22 22:02:05;;;;;;;13.10;8.35;;;;;;;19.53;78.33;99040.09;4121696;85;21026;-84
2021/08/22 22:08:06;;;;;;;10.93;7.75;;;;;;;19.46;78.15;99040.25;4125441;85;21021;-84
2021/08/22 22:14:07;;;;;;;11.12;8.13;;;;;;;19.36;78.63;99047.61;4096922;85;21086;-84
2021/08/22 22:20:09;;;;;;;20.90;9.95;;;;;;;19.32;79.22;99091.33;4080011;85;21046;-83
2021/08/22 22:26:11;;;;;;;15.60;10.35;;;;;;;19.25;79.82;99077.56;4143088;85;21106;-83
2021/08/22 22:32:13;;;;;;;18.82;10.63;;;;;;;18.94;80.72;99066.56;4134231;85;21014;-82
2021/08/22 22:38:15;;;;;;;13.78;10.78;;;;;;;18.74;81.35;99049.93;4108839;85;20982;-81
2021/08/22 22:44:16;;;;;;;19.35;10.72;;;;;;;18.68;82.50;99050.26;4105970;85;21006;-82
2021/08/22 22:50:18;;;;;;;13.60;10.43;;;;;;;18.60;82.94;99036.36;4130156;85;21735;-82
2021/08/22 22:56:23;;;;;;;13.28;9.13;;;;;;;18.47;83.03;99034.07;4112943;85;21089;-81
2021/08/22 23:02:24;;;;;;;15.13;10.20;;;;;;;18.37;84.71;99035.64;4097747;85;21090;-82
2021/08/22 23:08:25;;;;;;;14.10;9.73;;;;;;;18.28;84.73;99031.24;4085181;85;21003;-81
2021/08/22 23:14:30;;;;;;;12.13;9.73;;;;;;;18.27;85.02;99022.17;4121596;85;21116;-81
2021/08/22 23:20:32;;;;;;;11.18;9.13;;;;;;;18.24;85.59;99023.61;4123117;85;21070;-82
2021/08/22 23:26:33;;;;;;;13.15;9.50;;;;;;;18.31;86.06;99024.84;4062683;85;21009;-82
2021/08/22 23:32:34;;;;;;;12.18;8.58;;;;;;;18.26;86.12;99028.14;4112036;85;21050;-82
2021/08/22 23:38:36;;;;;;;13.28;8.78;;;;;;;18.28;86.71;99033.42;4115425;85;21089;-82
2021/08/22 23:44:37;;;;;;;11.97;9.63;;;;;;;18.27;87.03;99048.49;4096780;85;21068;-82
2021/08/22 23:50:38;;;;;;;11.28;8.95;;;;;;;18.32;87.31;99037.52;4099228;85;21078;-82
2021/08/22 23:56:40;;;;;;;14.05;9.48;;;;;;;18.30;87.26;99031.61;4101834;85;21054;-82
